Lone Star Executive Airport
KCXO : now visible

Airfield :











YOU CAN JOIN US ON...

 
LOGIN :

Register | Disclaimer

   EN    FR    IT 

 









Legend :    VFR   Marginal VFR   IFR   Intensive IFR   Very Intensive IFR
Visi :
Ceiling :
>= 8 km
>= 3000ft
5 to 8 km
1000 to 3000 ft
1500m to 5 km
500 to 1000 ft
800 to 1500m
200 to 500 ft
< 800m
< 200 ft
Symbols :   Thunderstorms  Fog  Heavy snow  Heavy precipitations  Wind > 20 kt






- Airport Elevation : 245 ft


KCXO - Lone Star Executive

CURRENT METAR :
  • 181253Z 16007KT 3SM BR BKN008 OVC024 23/22 A2995 RMK AO2 SFC VIS 6 SLP140 T02330217

EXPIRED METARs :
  • 181243Z 15007KT 3SM BR BKN008 OVC024 23/22 A2995 RMK AO2 SFC VIS 6 T02330217
  • 181205Z 16005KT 3SM BKN014 OVC020 23/22 A2995 RMK AO2 SFC VIS 8 T02330217
  • 181153Z 16007KT 8SM BKN017 OVC023 23/22 A2994 RMK AO2 SLP136 T02280217 10233 20217 51005
  • 181114Z 17006KT 8SM OVC015 23/22 A2994 RMK AO2 T02330217
  • 181053Z 15004KT 7SM BKN011 OVC020 23/22 A2993 RMK AO2 SLP133 T02280217
  • 180953Z AUTO 19004KT 8SM BKN011 OVC022 23/22 A2993 RMK AO2 SLP132 T02330217
  • 180853Z AUTO 18009KT 7SM BKN008 OVC014 23/22 A2992 RMK AO2 SLP130 T02280217 55013

TAF KCXO
Valid from the 18 at 12:00 until the 19 at 12:00 UTC


181125Z 1812/1912 15004KT P6SM BKN011 OVC020
FM181600 16008KT P6SM FEW011 BKN021
FM181800 17010KT P6SM SCT040 BKN150
FM190300 16006KT P6SM FEW009 BKN017
FM191000 VRB03KT 5SM BR BKN009
KZHU FIR / North America



MET'MAP, your aeronautical weather chart ! - Copyright ORBIFLY December 2007 - Disclaimer

ORBIFLY MET'MAP TEAM :

Programming & Development : Alexandra Zaïnal
Original concept : Baudouin d'Aumeries
Technical & hardware support : Manuel Goepfert
Assistance : Marc-Olivier Méhu




SOURCES & CREDITS :

   NOAA       Earth
Advisory